createdAt,value
2023-01-25T00:00:31.603Z,22.95
2023-01-25T00:03:19.460Z,22.08
2023-01-25T00:06:07.285Z,23.38
2023-01-25T00:08:55.022Z,21.45
2023-01-25T00:11:44.441Z,20.63
2023-01-25T00:14:32.227Z,22.30
2023-01-25T00:17:19.961Z,21.60
2023-01-25T00:20:08.278Z,22.20
2023-01-25T00:22:56.096Z,22.42
2023-01-25T00:25:43.893Z,22.23
2023-01-25T00:33:00.363Z,23.42
2023-01-25T00:35:49.474Z,22.17
2023-01-25T00:38:38.879Z,21.52
2023-01-25T00:41:26.841Z,21.48
2023-01-25T00:44:14.665Z,23.83
2023-01-25T00:47:02.395Z,22.58
2023-01-25T00:49:50.488Z,22.58
2023-01-25T00:52:38.268Z,22.17
2023-01-25T00:55:26.130Z,21.17
2023-01-25T00:58:13.814Z,23.25
2023-01-25T01:01:01.656Z,21.55
2023-01-25T01:03:52.107Z,20.90
2023-01-25T01:06:40.762Z,20.42
2023-01-25T01:09:28.874Z,20.67
2023-01-25T01:12:16.705Z,20.77
2023-01-25T01:15:05.795Z,20.05
2023-01-25T01:17:53.649Z,20.25
2023-01-25T01:20:41.367Z,21.60
2023-01-25T01:23:30.147Z,22.25
2023-01-25T01:26:19.595Z,21.52
2023-01-25T01:29:07.186Z,20.42
2023-01-25T01:31:55.788Z,20.50
2023-01-25T01:34:44.611Z,19.02
2023-01-25T01:37:34.930Z,20.02
2023-01-25T01:40:24.954Z,18.90
2023-01-25T01:43:23.882Z,20.10
2023-01-25T01:46:37.551Z,19.90
2023-01-25T01:49:31.671Z,16.33
2023-01-25T01:52:24.090Z,19.90
2023-01-25T01:55:18.380Z,20.63
2023-01-25T01:58:07.407Z,21.27
2023-01-25T02:00:55.249Z,20.38
2023-01-25T02:03:43.630Z,21.70
2023-01-25T02:06:54.508Z,21.92
2023-01-25T02:09:43.494Z,21.15
2023-01-25T02:12:32.075Z,23.17
2023-01-25T02:15:19.837Z,22.20
2023-01-25T02:18:09.506Z,22.88
2023-01-25T02:20:59.289Z,22.95
2023-01-25T02:24:16.211Z,22.98
2023-01-25T02:27:04.523Z,23.10
2023-01-25T02:29:52.803Z,22.23
2023-01-25T02:32:40.657Z,21.70
2023-01-25T02:35:48.858Z,22.77
2023-01-25T02:38:41.554Z,21.58
2023-01-25T02:41:38.436Z,21.75
2023-01-25T02:44:34.221Z,20.05
2023-01-25T02:47:22.184Z,22.85
2023-01-25T02:50:10.492Z,22.15
2023-01-25T02:53:00.621Z,21.95
2023-01-25T02:55:48.386Z,22.30
2023-01-25T02:58:36.092Z,21.15
2023-01-25T03:01:23.954Z,21.55
2023-01-25T03:04:11.737Z,22.08
2023-01-25T03:06:59.360Z,23.33
2023-01-25T03:09:47.054Z,23.73
2023-01-25T03:12:34.702Z,23.92
2023-01-25T03:15:22.441Z,25.25
2023-01-25T03:18:10.072Z,22.88
2023-01-25T03:21:03.891Z,22.95
2023-01-25T03:23:57.435Z,24.15
2023-01-25T03:27:04.201Z,22.52
2023-01-25T03:29:52.007Z,23.50
2023-01-25T03:32:39.655Z,21.75
2023-01-25T03:35:27.378Z,23.58
2023-01-25T03:38:15.308Z,22.45
2023-01-25T03:41:04.092Z,22.50
2023-01-25T03:43:51.790Z,21.25
2023-01-25T03:46:41.102Z,22.45
2023-01-25T03:49:28.796Z,23.73
2023-01-25T03:52:16.565Z,22.17
2023-01-25T03:55:05.628Z,22.50
2023-01-25T03:57:53.354Z,23.52
2023-01-25T04:00:41.040Z,21.27
2023-01-25T04:03:31.196Z,21.55
2023-01-25T04:06:19.259Z,21.25
2023-01-25T04:09:07.994Z,22.92
2023-01-25T04:11:55.839Z,22.33
2023-01-25T04:14:44.883Z,23.02
2023-01-25T04:17:33.335Z,21.77
2023-01-25T04:20:20.946Z,21.13
2023-01-25T04:23:09.381Z,21.55
2023-01-25T04:25:59.373Z,22.85
2023-01-25T04:28:47.042Z,23.60
2023-01-25T04:31:34.870Z,23.25
2023-01-25T04:34:22.493Z,24.77
2023-01-25T04:37:10.104Z,23.75
2023-01-25T04:39:57.901Z,23.85
2023-01-25T04:42:45.588Z,24.98
2023-01-25T04:45:33.603Z,24.63
2023-01-25T04:48:21.348Z,23.00
2023-01-25T04:51:09.567Z,22.30
2023-01-25T04:53:57.153Z,23.02
2023-01-25T04:56:44.844Z,22.10
2023-01-25T04:59:32.531Z,22.08
2023-01-25T05:02:20.148Z,24.67
2023-01-25T05:05:08.303Z,23.88
2023-01-25T05:07:56.117Z,23.15
2023-01-25T05:10:45.050Z,22.58
2023-01-25T05:13:32.674Z,22.20
2023-01-25T05:16:20.607Z,20.77
2023-01-25T05:19:09.974Z,21.27
2023-01-25T05:22:00.420Z,23.40
2023-01-25T05:24:48.964Z,23.92
2023-01-25T05:27:36.879Z,23.20
2023-01-25T05:30:24.427Z,25.58
2023-01-25T05:33:11.984Z,23.88
2023-01-25T05:35:59.661Z,25.77
2023-01-25T05:38:48.106Z,24.40
2023-01-25T05:41:35.748Z,22.20
2023-01-25T05:44:23.730Z,22.65
2023-01-25T05:47:16.438Z,23.98
2023-01-25T05:50:04.487Z,24.80
2023-01-25T05:52:52.686Z,25.00
2023-01-25T05:55:40.559Z,25.50
2023-01-25T05:58:28.278Z,24.30
2023-01-25T06:01:15.944Z,22.98
2023-01-25T06:04:04.022Z,23.08
2023-01-25T06:06:52.969Z,23.58
2023-01-25T06:09:40.658Z,26.05
2023-01-25T06:12:29.580Z,26.10
2023-01-25T06:15:18.131Z,25.88
2023-01-25T06:18:05.783Z,26.42
2023-01-25T06:20:56.869Z,23.73
2023-01-25T06:23:45.364Z,25.88
2023-01-25T06:26:33.037Z,23.95
2023-01-25T06:29:20.628Z,23.80
2023-01-25T06:32:11.012Z,25.13
2023-01-25T06:34:58.660Z,26.52
2023-01-25T06:37:46.505Z,24.85
2023-01-25T06:40:34.483Z,26.48
2023-01-25T06:43:25.988Z,27.65
2023-01-25T06:46:14.062Z,27.10
2023-01-25T06:49:07.778Z,26.75
2023-01-25T06:51:58.035Z,26.10
2023-01-25T06:54:46.722Z,25.23
2023-01-25T06:57:34.809Z,25.05
2023-01-25T07:00:28.133Z,25.95
2023-01-25T07:06:37.734Z,25.35
2023-01-25T07:09:29.052Z,25.25
2023-01-25T07:12:23.571Z,25.75
2023-01-25T07:15:14.476Z,24.85
2023-01-25T07:18:22.901Z,27.38
2023-01-25T07:21:16.940Z,24.52
2023-01-25T07:24:06.356Z,26.05
2023-01-25T07:26:58.439Z,23.85
2023-01-25T07:29:48.769Z,24.85
2023-01-25T07:32:44.080Z,25.42
2023-01-25T07:35:51.239Z,27.70
2023-01-25T07:39:02.303Z,24.83
2023-01-25T07:41:53.079Z,26.58
2023-01-25T07:44:41.417Z,27.67
2023-01-25T07:48:21.633Z,25.90
2023-01-25T07:55:08.113Z,25.80
2023-01-25T08:01:37.299Z,27.42
2023-01-25T08:04:47.137Z,25.63
2023-01-25T08:07:48.850Z,27.00
2023-01-25T08:11:10.214Z,26.98
2023-01-25T08:17:48.528Z,25.90
2023-01-25T08:20:44.557Z,27.77
2023-01-25T08:32:46.786Z,26.20
2023-01-25T08:35:37.401Z,26.33
2023-01-25T08:38:25.717Z,26.58
2023-01-25T08:41:19.681Z,28.50
2023-01-25T08:46:55.904Z,28.63
2023-01-25T08:49:43.991Z,25.77
2023-01-25T08:52:31.880Z,27.98
2023-01-25T08:55:21.822Z,26.98
2023-01-25T08:58:44.795Z,28.50
2023-01-25T09:01:33.646Z,27.98
2023-01-25T09:04:29.119Z,27.15
2023-01-25T09:07:19.286Z,26.45
2023-01-25T09:10:09.651Z,26.70
2023-01-25T09:13:06.407Z,25.73
2023-01-25T09:16:07.157Z,27.58
2023-01-25T09:19:00.065Z,28.10
2023-01-25T09:21:51.138Z,27.38
2023-01-25T09:24:48.021Z,26.15
2023-01-25T09:27:57.368Z,26.65
2023-01-25T09:31:18.688Z,27.20
2023-01-25T09:34:09.112Z,27.58
2023-01-25T09:36:57.148Z,25.83
2023-01-25T09:39:48.135Z,26.83
2023-01-25T09:43:02.820Z,25.35
2023-01-25T09:45:50.941Z,24.77
2023-01-25T09:49:23.238Z,25.40
2023-01-25T09:52:29.177Z,24.65
2023-01-25T09:55:22.904Z,24.30
2023-01-25T09:58:19.717Z,25.38
2023-01-25T10:01:36.969Z,25.65
2023-01-25T10:04:52.267Z,25.05
2023-01-25T10:07:55.182Z,23.85
2023-01-25T10:10:45.345Z,24.02
2023-01-25T10:13:33.043Z,23.95
2023-01-25T10:16:42.577Z,24.67
2023-01-25T10:20:03.491Z,24.23
2023-01-25T10:23:29.733Z,22.17
2023-01-25T10:26:34.850Z,24.23
2023-01-25T10:29:31.433Z,23.40
2023-01-25T10:32:33.006Z,22.98
2023-01-25T10:35:34.661Z,24.95
2023-01-25T10:38:39.705Z,23.73
2023-01-25T10:41:35.034Z,21.93
2023-01-25T10:44:25.271Z,23.25
2023-01-25T10:47:24.352Z,24.42
2023-01-25T10:50:47.902Z,24.85
2023-01-25T10:53:39.772Z,22.45
2023-01-25T10:56:30.213Z,25.98
2023-01-25T10:59:22.958Z,25.83
2023-01-25T11:02:35.514Z,24.45
2023-01-25T11:05:29.345Z,24.38
2023-01-25T11:08:36.630Z,24.60
2023-01-25T11:11:35.579Z,25.05
2023-01-25T11:14:27.805Z,23.40
2023-01-25T11:17:32.795Z,22.58
2023-01-25T11:20:21.496Z,23.88
2023-01-25T11:23:39.111Z,25.30
2023-01-25T11:26:27.476Z,24.80
2023-01-25T11:29:19.551Z,25.33
2023-01-25T11:32:21.806Z,25.35
2023-01-25T11:35:21.249Z,26.77
2023-01-25T11:38:17.495Z,29.27
2023-01-25T11:41:15.260Z,25.08
2023-01-25T11:44:22.047Z,24.98
2023-01-25T11:47:24.635Z,24.25
2023-01-25T11:50:30.732Z,24.88
2023-01-25T11:53:47.982Z,23.85
2023-01-25T11:56:57.959Z,24.95
2023-01-25T12:00:27.903Z,25.15
2023-01-25T12:03:44.640Z,24.80
2023-01-25T12:06:39.433Z,26.23
2023-01-25T12:09:38.979Z,25.75
2023-01-25T12:12:49.967Z,25.27
2023-01-25T12:15:59.458Z,24.05
2023-01-25T12:18:53.488Z,25.23
2023-01-25T12:24:58.806Z,22.98
2023-01-25T12:28:05.425Z,23.65
2023-01-25T12:31:12.176Z,24.38
2023-01-25T12:34:05.238Z,25.65
2023-01-25T12:37:00.865Z,21.20
2023-01-25T12:40:03.426Z,24.98
2023-01-25T12:42:56.101Z,25.27
2023-01-25T12:45:49.694Z,25.33
2023-01-25T12:48:46.818Z,24.23
2023-01-25T12:51:39.272Z,24.20
2023-01-25T12:54:41.129Z,26.08
2023-01-25T12:57:41.589Z,24.65
2023-01-25T13:01:03.255Z,25.38
2023-01-25T13:13:04.400Z,25.05
2023-01-25T13:15:53.734Z,24.65
2023-01-25T13:18:41.920Z,23.73
2023-01-25T13:21:42.603Z,22.75
2023-01-25T13:24:44.488Z,24.88
2023-01-25T13:27:46.008Z,23.20
2023-01-25T13:30:37.639Z,23.60
2023-01-25T13:33:36.293Z,24.17
2023-01-25T13:36:46.862Z,25.02
2023-01-25T13:39:34.455Z,24.15
2023-01-25T13:42:31.012Z,24.23
2023-01-25T13:45:24.429Z,23.45
2023-01-25T13:48:17.610Z,25.23
2023-01-25T13:51:15.023Z,23.53
2023-01-25T13:54:03.118Z,24.55
2023-01-25T13:57:14.433Z,22.95
2023-01-25T14:00:12.229Z,24.63
2023-01-25T14:03:01.651Z,25.23
2023-01-25T14:06:16.250Z,24.67
2023-01-25T14:09:20.518Z,23.70
2023-01-25T14:12:24.384Z,22.08
2023-01-25T14:15:28.326Z,22.58
2023-01-25T14:18:19.537Z,24.58
2023-01-25T14:21:19.740Z,22.58
2023-01-25T14:24:12.069Z,21.80
2023-01-25T14:27:00.430Z,22.50
2023-01-25T14:29:49.591Z,25.33
2023-01-25T14:32:37.977Z,24.92
2023-01-25T14:35:53.885Z,23.70
2023-01-25T14:38:47.589Z,24.40
2023-01-25T14:41:48.742Z,24.42
2023-01-25T14:44:47.749Z,25.48
2023-01-25T14:47:36.342Z,23.38
2023-01-25T14:50:41.307Z,24.38
2023-01-25T14:53:29.837Z,24.75
2023-01-25T14:56:30.360Z,25.15
2023-01-25T14:59:36.935Z,23.30
2023-01-25T15:02:39.589Z,25.83
2023-01-25T15:05:35.070Z,24.45
2023-01-25T15:08:37.056Z,26.42
2023-01-25T15:11:49.231Z,26.00
2023-01-25T15:14:54.511Z,26.35
2023-01-25T15:17:46.080Z,25.73
2023-01-25T15:20:50.947Z,26.70
2023-01-25T15:23:42.399Z,26.42
2023-01-25T15:26:33.873Z,26.60
2023-01-25T15:29:27.600Z,27.65
2023-01-25T15:32:20.887Z,25.73
2023-01-25T15:35:16.647Z,26.38
2023-01-25T15:38:04.710Z,25.23
2023-01-25T15:40:53.527Z,26.58
2023-01-25T15:43:41.952Z,24.88
2023-01-25T15:46:34.205Z,26.65
2023-01-25T15:49:26.776Z,25.33
2023-01-25T15:52:19.431Z,25.65
2023-01-25T15:55:07.638Z,26.92
2023-01-25T15:57:55.546Z,27.83
2023-01-25T16:00:44.979Z,25.52
2023-01-25T16:03:33.720Z,23.75
2023-01-25T16:06:51.116Z,24.40
2023-01-25T16:09:40.220Z,24.58
2023-01-25T16:12:28.395Z,23.52
2023-01-25T16:15:16.754Z,23.83
2023-01-25T16:18:15.263Z,24.35
2023-01-25T16:21:05.182Z,25.98
2023-01-25T16:27:18.318Z,30.42
2023-01-25T16:51:59.662Z,41.70
2023-01-25T16:55:14.201Z,43.60
2023-01-25T16:58:17.971Z,35.13
2023-01-25T17:29:10.372Z,34.92
2023-01-25T17:32:13.181Z,34.13
2023-01-25T17:44:39.199Z,42.17
2023-01-25T19:39:37.863Z,38.78
2023-01-25T19:42:35.416Z,34.88
2023-01-25T19:45:32.570Z,32.88
2023-01-25T19:56:32.386Z,34.13
2023-01-25T19:59:27.591Z,37.72
2023-01-25T20:02:17.976Z,36.28
2023-01-25T20:09:07.584Z,40.65
2023-01-25T20:11:58.108Z,42.97
2023-01-25T20:14:49.395Z,41.85
2023-01-25T20:17:40.532Z,41.92
2023-01-25T20:20:28.879Z,41.38
2023-01-25T20:23:16.827Z,40.92
2023-01-25T20:26:13.720Z,43.55
2023-01-25T20:29:07.801Z,41.45
2023-01-25T20:31:59.254Z,43.15
2023-01-25T20:34:47.679Z,37.90
2023-01-25T20:37:41.039Z,42.42
2023-01-25T20:43:33.110Z,43.10
2023-01-25T20:46:22.474Z,41.65
2023-01-25T20:49:15.952Z,40.75
2023-01-25T20:52:05.609Z,39.60
2023-01-25T20:58:11.325Z,39.15
2023-01-25T21:07:08.492Z,36.85
2023-01-25T21:09:59.416Z,38.72
2023-01-25T21:13:03.664Z,40.05
2023-01-25T21:16:12.420Z,36.47
2023-01-25T21:19:08.620Z,34.35
2023-01-25T21:28:05.184Z,31.90
2023-01-25T21:30:59.929Z,32.03
